createdAt,value
2022-11-12T00:04:55.981Z,8.25
2022-11-12T00:09:58.551Z,8.03
2022-11-12T00:15:02.668Z,7.60
2022-11-12T00:20:06.645Z,7.65
2022-11-12T00:25:09.898Z,7.84
2022-11-12T00:30:14.692Z,7.84
2022-11-12T00:35:17.696Z,7.63
2022-11-12T00:40:20.255Z,7.70
2022-11-12T00:45:24.778Z,7.63
2022-11-12T00:50:27.263Z,7.58
2022-11-12T00:55:29.854Z,7.61
2022-11-12T01:00:33.738Z,7.39
2022-11-12T01:05:36.312Z,7.53
2022-11-12T01:10:38.986Z,6.93
2022-11-12T01:15:43.712Z,7.22
2022-11-12T01:20:46.258Z,7.31
2022-11-12T01:25:48.829Z,7.19
2022-11-12T01:30:52.791Z,7.06
2022-11-12T01:35:59.553Z,7.27
2022-11-12T01:41:02.176Z,6.99
2022-11-12T01:46:09.378Z,6.89
2022-11-12T01:51:14.003Z,6.94
2022-11-12T01:56:18.267Z,6.87
2022-11-12T02:01:22.293Z,6.98
2022-11-12T02:06:25.932Z,7.18
2022-11-12T02:11:28.532Z,7.07
2022-11-12T02:16:35.452Z,7.14
2022-11-12T02:21:39.683Z,7.26
2022-11-12T02:26:45.833Z,7.06
2022-11-12T02:31:48.760Z,5.99
2022-11-12T02:36:52.632Z,5.98
2022-11-12T02:41:55.190Z,5.79
2022-11-12T02:46:57.815Z,5.99
2022-11-12T02:52:01.761Z,5.60
2022-11-12T02:57:04.549Z,6.22
2022-11-12T03:02:07.155Z,6.59
2022-11-12T03:07:11.115Z,6.67
2022-11-12T03:12:13.741Z,6.77
2022-11-12T03:17:16.281Z,6.43
2022-11-12T03:22:20.193Z,6.43
2022-11-12T03:27:22.750Z,6.26
2022-11-12T03:32:26.016Z,5.70
2022-11-12T03:37:30.081Z,6.05
2022-11-12T03:42:32.663Z,6.10
2022-11-12T03:47:35.277Z,6.14
2022-11-12T03:52:40.028Z,6.16
2022-11-12T03:57:43.037Z,4.95
2022-11-12T04:02:45.867Z,5.28
2022-11-12T04:08:14.661Z,5.38
2022-11-12T04:13:29.396Z,5.37
2022-11-12T04:18:49.406Z,5.82
2022-11-12T04:23:53.348Z,5.71
2022-11-12T04:29:13.670Z,5.64
2022-11-12T04:34:31.732Z,5.58
2022-11-12T04:39:36.223Z,5.46
2022-11-12T04:45:01.208Z,4.63
2022-11-12T04:50:05.593Z,4.12
2022-11-12T04:55:10.889Z,5.02
2022-11-12T05:00:14.560Z,5.16
2022-11-12T05:05:17.701Z,5.09
2022-11-12T05:10:21.635Z,5.28
2022-11-12T05:15:24.754Z,5.32
2022-11-12T05:20:27.461Z,5.30
2022-11-12T05:25:31.344Z,5.36
2022-11-12T05:30:33.931Z,4.91
2022-11-12T05:35:36.518Z,4.91
2022-11-12T05:40:45.502Z,5.14
2022-11-12T05:45:48.093Z,5.08
2022-11-12T05:51:12.050Z,5.02
2022-11-12T05:56:15.176Z,4.96
2022-11-12T06:01:17.783Z,5.01
2022-11-12T06:06:20.494Z,4.93
2022-11-12T06:11:24.454Z,5.08
2022-11-12T06:16:27.221Z,5.17
2022-11-12T06:21:29.914Z,5.19
2022-11-12T06:26:33.926Z,4.95
2022-11-12T06:31:36.695Z,5.26
2022-11-12T06:36:39.403Z,5.49
2022-11-12T06:41:43.321Z,5.38
2022-11-12T06:46:45.951Z,5.34
2022-11-12T06:51:51.560Z,5.32
2022-11-12T06:56:55.575Z,5.33
2022-11-12T07:01:58.306Z,5.20
2022-11-12T07:07:01.042Z,5.12
2022-11-12T07:12:05.551Z,4.88
2022-11-12T07:17:08.183Z,4.73
2022-11-12T07:22:10.821Z,4.79
2022-11-12T07:27:15.052Z,4.42
2022-11-12T07:32:17.653Z,4.84
2022-11-12T07:37:20.385Z,5.02
2022-11-12T07:42:24.359Z,5.40
2022-11-12T07:47:27.278Z,5.63
2022-11-12T07:52:29.903Z,6.33
2022-11-12T07:57:35.033Z,6.57
2022-11-12T08:02:37.675Z,6.62
2022-11-12T08:07:40.438Z,7.07
2022-11-12T08:12:44.495Z,7.43
2022-11-12T08:17:47.112Z,7.78
2022-11-12T08:22:49.875Z,8.17
2022-11-12T08:27:58.327Z,8.44
2022-11-12T08:33:03.274Z,8.50
2022-11-12T08:38:07.828Z,8.59
2022-11-12T08:43:12.972Z,8.86
2022-11-12T08:48:17.364Z,8.91
2022-11-12T08:53:20.189Z,9.31
2022-11-12T08:58:25.023Z,9.44
2022-11-12T09:03:27.903Z,9.89
2022-11-12T09:08:30.865Z,10.19
2022-11-12T09:13:35.719Z,9.96
2022-11-12T09:18:38.768Z,10.53
2022-11-12T09:23:41.702Z,10.52
2022-11-12T09:28:45.671Z,10.86
2022-11-12T09:33:48.253Z,11.25
2022-11-12T09:38:50.789Z,11.77
2022-11-12T09:44:01.039Z,11.98
2022-11-12T09:49:11.240Z,12.53
2022-11-12T09:54:21.883Z,12.22
2022-11-12T09:59:30.646Z,12.90
2022-11-12T10:04:55.407Z,13.52
2022-11-12T10:10:02.544Z,14.05
2022-11-12T10:15:46.415Z,14.27
2022-11-12T10:20:56.021Z,14.48
2022-11-12T10:26:02.348Z,14.92
2022-11-12T10:31:13.438Z,15.57
2022-11-12T10:36:26.253Z,15.89
2022-11-12T10:41:31.449Z,15.55
2022-11-12T10:46:37.451Z,15.08
2022-11-12T10:51:40.450Z,15.70
2022-11-12T10:56:43.078Z,14.51
2022-11-12T11:01:54.717Z,14.84
2022-11-12T11:07:06.706Z,14.96
2022-11-12T11:12:24.620Z,15.19
2022-11-12T11:17:28.631Z,16.04
2022-11-12T11:22:41.414Z,16.54
2022-11-12T11:27:54.757Z,16.83
2022-11-12T11:33:43.119Z,17.35
2022-11-12T11:38:56.287Z,15.99
2022-11-12T11:44:13.804Z,17.42
2022-11-12T11:49:39.324Z,17.79
2022-11-12T11:55:01.321Z,18.31
2022-11-12T12:00:13.911Z,18.84
2022-11-12T12:05:29.672Z,18.23
2022-11-12T12:16:26.653Z,19.55
2022-11-12T12:21:34.328Z,18.95
2022-11-12T12:26:42.452Z,18.73
2022-11-12T12:31:50.504Z,18.33
2022-11-12T12:37:03.135Z,18.43
2022-11-12T12:42:15.620Z,19.96
2022-11-12T12:47:20.833Z,20.65
2022-11-12T12:52:24.890Z,20.58
2022-11-12T12:57:33.492Z,20.03
2022-11-12T13:02:39.762Z,19.95
2022-11-12T13:07:46.725Z,19.88
2022-11-12T13:13:07.621Z,19.08
2022-11-12T13:18:16.901Z,19.22
2022-11-12T13:24:08.547Z,18.71
2022-11-12T13:29:52.717Z,18.51
2022-11-12T13:35:16.065Z,18.69
2022-11-12T13:40:26.518Z,18.79
2022-11-12T13:45:29.204Z,19.66
2022-11-12T13:50:37.808Z,19.54
2022-11-12T13:55:50.725Z,19.09
2022-11-12T14:00:54.748Z,18.41
2022-11-12T14:06:08.696Z,17.78
2022-11-12T14:11:32.186Z,17.27
2022-11-12T14:16:44.971Z,16.91
2022-11-12T14:22:01.143Z,16.41
2022-11-12T14:27:05.200Z,15.89
2022-11-12T14:32:10.506Z,15.28
2022-11-12T14:37:38.211Z,15.30
2022-11-12T14:42:46.338Z,14.13
2022-11-12T14:47:53.931Z,13.00
2022-11-12T14:53:01.466Z,12.59
2022-11-12T14:58:06.514Z,12.03
2022-11-12T15:03:14.309Z,12.84
2022-11-12T15:08:30.531Z,12.66
2022-11-12T15:13:42.547Z,12.83
2022-11-12T15:18:46.451Z,12.32
2022-11-12T15:23:50.337Z,11.90
2022-11-12T15:29:02.122Z,11.61
2022-11-12T15:34:26.958Z,10.44
2022-11-12T15:39:30.062Z,10.55
2022-11-12T15:44:37.655Z,9.48
2022-11-12T15:49:48.552Z,9.78
2022-11-12T15:54:51.642Z,9.22
2022-11-12T16:00:07.727Z,9.36
2022-11-12T16:05:14.171Z,9.21
2022-11-12T16:10:18.668Z,8.13
2022-11-12T16:15:25.527Z,8.23
2022-11-12T16:20:31.755Z,8.00
2022-11-12T16:25:36.877Z,8.90
2022-11-12T16:30:40.971Z,7.80
2022-11-12T16:35:43.653Z,8.41
2022-11-12T16:40:47.002Z,8.01
2022-11-12T16:45:51.807Z,7.84
2022-11-12T16:50:55.237Z,8.41
2022-11-12T16:55:58.350Z,7.56
2022-11-12T17:01:03.093Z,6.94
2022-11-12T17:06:06.699Z,7.46
2022-11-12T17:11:10.238Z,7.72
2022-11-12T17:16:14.491Z,6.94
2022-11-12T17:21:18.968Z,7.18
2022-11-12T17:26:22.861Z,7.12
2022-11-12T17:31:27.172Z,7.87
2022-11-12T17:36:30.007Z,7.28
2022-11-12T17:41:32.602Z,6.24
2022-11-12T17:46:37.403Z,6.17
2022-11-12T17:51:39.926Z,6.77
2022-11-12T17:56:42.589Z,6.42
2022-11-12T18:01:46.468Z,5.93
2022-11-12T18:06:49.093Z,6.27
2022-11-12T18:11:54.159Z,6.65
2022-11-12T18:17:01.209Z,6.55
2022-11-12T18:22:03.777Z,7.03
2022-11-12T18:27:06.329Z,7.11
2022-11-12T18:32:10.208Z,7.21
2022-11-12T18:37:12.859Z,6.35
2022-11-12T18:42:18.019Z,5.46
2022-11-12T18:47:22.023Z,6.32
2022-11-12T18:52:24.583Z,5.89
2022-11-12T18:57:27.142Z,5.95
2022-11-12T19:02:31.307Z,5.05
2022-11-12T19:07:33.862Z,4.94
2022-11-12T19:12:36.937Z,5.14
2022-11-12T19:17:40.896Z,4.97
2022-11-12T19:22:43.478Z,4.41
2022-11-12T19:27:46.258Z,5.65
2022-11-12T19:32:50.225Z,5.10
2022-11-12T19:37:52.773Z,5.59
2022-11-12T19:42:55.331Z,5.23
2022-11-12T19:47:59.356Z,5.83
2022-11-12T19:53:01.890Z,5.74
2022-11-12T19:58:04.437Z,5.20
2022-11-12T20:03:08.459Z,4.49
2022-11-12T20:08:11.037Z,4.72
2022-11-12T20:13:13.680Z,5.28
2022-11-12T20:18:17.871Z,5.47
2022-11-12T20:23:20.459Z,4.82
2022-11-12T20:28:23.028Z,5.34
2022-11-12T20:33:27.434Z,5.60
2022-11-12T20:38:30.582Z,5.67
2022-11-12T20:43:33.807Z,5.66
2022-11-12T20:48:42.840Z,5.73
2022-11-12T20:53:47.120Z,5.34
2022-11-12T20:58:50.752Z,5.64
2022-11-12T21:03:54.767Z,5.65
2022-11-12T21:09:00.153Z,5.55
2022-11-12T21:14:03.806Z,5.44
2022-11-12T21:19:08.141Z,5.24
2022-11-12T21:24:12.838Z,5.30
2022-11-12T21:29:18.749Z,5.31
2022-11-12T21:34:23.006Z,5.22
2022-11-12T21:39:25.560Z,4.85
2022-11-12T21:44:28.164Z,4.97
2022-11-12T21:49:32.086Z,4.04
2022-11-12T21:54:35.399Z,3.98
2022-11-12T21:59:38.011Z,3.75
2022-11-12T22:04:42.315Z,4.48
2022-11-12T22:09:44.870Z,4.25
2022-11-12T22:14:47.406Z,3.45
2022-11-12T22:19:51.426Z,3.20
2022-11-12T22:24:54.495Z,3.80
2022-11-12T22:29:57.056Z,4.21
2022-11-12T22:35:01.042Z,4.40
2022-11-12T22:40:04.692Z,4.32
2022-11-12T22:45:10.867Z,4.29
2022-11-12T22:50:15.329Z,4.39
2022-11-12T22:55:18.142Z,4.40
2022-11-12T23:00:30.615Z,4.33
2022-11-12T23:05:34.524Z,4.30
2022-11-12T23:10:40.462Z,4.48
2022-11-12T23:15:47.719Z,4.23
2022-11-12T23:20:51.671Z,4.41
2022-11-12T23:25:54.469Z,4.00
2022-11-12T23:30:57.048Z,4.14
2022-11-12T23:36:06.842Z,3.63
2022-11-12T23:41:11.668Z,3.65
2022-11-12T23:46:14.348Z,3.88
2022-11-12T23:51:20.264Z,3.81
2022-11-12T23:56:22.822Z,3.99
